createdAt,value
2018-03-17T00:01:10.104Z,26.08
2018-03-17T00:03:37.590Z,26.13
2018-03-17T00:06:05.025Z,25.85
2018-03-17T00:08:32.598Z,25.94
2018-03-17T00:11:00.057Z,26.08
2018-03-17T00:13:27.522Z,26.19
2018-03-17T00:15:55.168Z,25.89
2018-03-17T00:18:22.654Z,25.92
2018-03-17T00:20:50.087Z,25.85
2018-03-17T00:23:17.738Z,26.22
2018-03-17T00:25:45.182Z,25.98
2018-03-17T00:28:12.787Z,25.83
2018-03-17T00:30:40.381Z,26.12
2018-03-17T00:33:07.799Z,25.61
2018-03-17T00:35:35.293Z,25.75
2018-03-17T00:38:02.830Z,26.25
2018-03-17T00:40:30.321Z,25.81
2018-03-17T00:42:57.746Z,25.74
2018-03-17T00:45:25.202Z,26.13
2018-03-17T00:47:52.708Z,25.71
2018-03-17T00:50:20.133Z,26.11
2018-03-17T00:52:47.601Z,25.86
2018-03-17T00:55:15.022Z,25.61
2018-03-17T00:57:42.453Z,25.99
2018-03-17T01:00:10.029Z,25.66
2018-03-17T01:02:37.486Z,25.63
2018-03-17T01:05:04.950Z,25.70
2018-03-17T01:07:32.514Z,25.97
2018-03-17T01:09:59.969Z,25.53
2018-03-17T01:12:27.394Z,25.73
2018-03-17T01:14:54.877Z,25.81
2018-03-17T01:17:22.341Z,25.81
2018-03-17T01:19:49.769Z,25.71
2018-03-17T01:22:17.389Z,25.67
2018-03-17T01:24:44.810Z,25.76
2018-03-17T01:27:12.305Z,25.50
2018-03-17T01:29:39.762Z,25.51
2018-03-17T01:32:07.190Z,25.56
2018-03-17T01:34:34.699Z,25.62
2018-03-17T01:37:02.158Z,25.64
2018-03-17T01:39:29.573Z,25.54
2018-03-17T01:41:56.995Z,25.45
2018-03-17T01:44:24.541Z,25.68
2018-03-17T01:46:52.015Z,25.60
2018-03-17T01:49:19.469Z,25.57
2018-03-17T01:51:47.034Z,25.57
2018-03-17T01:54:26.349Z,25.46
2018-03-17T01:56:53.930Z,25.63
2018-03-17T01:59:21.348Z,25.57
2018-03-17T02:01:48.860Z,25.64
2018-03-17T02:04:16.325Z,25.58
2018-03-17T02:06:43.736Z,25.51
2018-03-17T02:09:11.216Z,25.43
2018-03-17T02:11:38.809Z,25.67
2018-03-17T02:14:06.233Z,25.45
2018-03-17T02:16:33.649Z,25.44
2018-03-17T02:19:01.189Z,25.51
2018-03-17T02:21:28.659Z,25.42
2018-03-17T02:23:56.077Z,25.43
2018-03-17T02:26:23.690Z,25.47
2018-03-17T02:28:51.141Z,25.51
2018-03-17T02:31:18.570Z,25.46
2018-03-17T02:33:46.130Z,25.44
2018-03-17T02:36:13.541Z,25.47
2018-03-17T02:38:40.993Z,25.54
2018-03-17T02:41:08.558Z,25.45
2018-03-17T02:43:36.022Z,25.35
2018-03-17T02:46:03.487Z,25.36
2018-03-17T02:48:31.050Z,25.33
2018-03-17T02:50:58.519Z,25.35
2018-03-17T02:53:25.971Z,25.34
2018-03-17T02:55:53.634Z,25.32
2018-03-17T02:58:21.064Z,25.41
2018-03-17T03:00:48.543Z,25.40
2018-03-17T03:03:16.125Z,25.48
2018-03-17T03:05:43.598Z,25.48
2018-03-17T03:08:11.014Z,25.41
2018-03-17T03:10:38.613Z,25.48
2018-03-17T03:13:06.035Z,25.35
2018-03-17T03:15:33.453Z,25.56
2018-03-17T03:18:00.920Z,25.41
2018-03-17T03:20:28.366Z,25.35
2018-03-17T03:22:55.821Z,25.52
2018-03-17T03:25:23.291Z,25.42
2018-03-17T03:27:50.750Z,25.48
2018-03-17T03:30:18.166Z,25.46
2018-03-17T03:32:45.772Z,25.65
2018-03-17T03:35:13.221Z,25.46
2018-03-17T03:37:40.625Z,25.66
2018-03-17T03:40:08.226Z,25.63
2018-03-17T03:42:35.726Z,25.52
2018-03-17T03:45:03.191Z,25.66
2018-03-17T03:47:30.734Z,25.58
2018-03-17T03:49:58.144Z,25.51
2018-03-17T03:52:25.578Z,25.53
2018-03-17T03:54:53.118Z,25.49
2018-03-17T03:57:20.601Z,25.64
2018-03-17T03:59:48.018Z,25.54
2018-03-17T04:02:15.630Z,25.43
2018-03-17T04:04:43.050Z,25.42
2018-03-17T04:07:10.531Z,25.40
2018-03-17T04:09:38.009Z,25.49
2018-03-17T04:12:05.430Z,25.63
2018-03-17T04:14:32.852Z,25.48
2018-03-17T04:17:00.502Z,25.45
2018-03-17T04:19:27.965Z,25.43
2018-03-17T04:21:55.381Z,25.41
2018-03-17T04:24:22.842Z,25.34
2018-03-17T04:26:50.270Z,25.41
2018-03-17T04:29:17.685Z,25.38
2018-03-17T04:31:45.174Z,25.38
2018-03-17T04:34:12.594Z,25.38
2018-03-17T04:36:40.015Z,25.41
2018-03-17T04:39:07.565Z,25.30
2018-03-17T04:41:34.981Z,25.26
2018-03-17T04:44:02.485Z,25.26
2018-03-17T04:46:29.934Z,25.46
2018-03-17T04:48:57.353Z,25.39
2018-03-17T04:51:24.870Z,25.45
2018-03-17T04:53:52.434Z,25.42
2018-03-17T04:56:19.854Z,25.51
2018-03-17T04:58:47.362Z,25.49
2018-03-17T05:01:14.917Z,25.46
2018-03-17T05:03:42.341Z,25.50
2018-03-17T05:06:09.757Z,25.50
2018-03-17T05:08:37.309Z,25.47
2018-03-17T05:11:04.730Z,25.52
2018-03-17T05:13:32.230Z,25.48
2018-03-17T05:15:59.694Z,25.60
2018-03-17T05:18:27.156Z,25.43
2018-03-17T05:20:54.621Z,25.49
2018-03-17T05:23:22.078Z,25.37
2018-03-17T05:25:49.541Z,25.47
2018-03-17T05:28:16.960Z,25.52
2018-03-17T05:30:44.577Z,25.51
2018-03-17T05:33:12.033Z,25.51
2018-03-17T05:35:39.445Z,25.70
2018-03-17T05:38:07.062Z,25.54
2018-03-17T05:40:34.481Z,25.45
2018-03-17T05:43:01.993Z,25.60
2018-03-17T05:45:29.644Z,25.52
2018-03-17T05:47:57.109Z,25.65
2018-03-17T05:50:24.533Z,25.57
2018-03-17T05:52:52.137Z,25.37
2018-03-17T05:55:19.565Z,25.58
2018-03-17T05:57:47.066Z,25.55
2018-03-17T06:00:14.629Z,25.38
2018-03-17T06:02:42.050Z,25.53
2018-03-17T06:05:09.470Z,25.46
2018-03-17T06:07:37.066Z,25.46
2018-03-17T06:10:04.485Z,25.57
2018-03-17T06:12:31.933Z,25.48
2018-03-17T06:14:59.496Z,25.47
2018-03-17T06:17:26.922Z,25.53
2018-03-17T06:19:54.434Z,25.33
2018-03-17T06:22:21.994Z,25.53
2018-03-17T06:24:49.418Z,25.55
2018-03-17T06:27:16.834Z,25.58
2018-03-17T06:29:44.294Z,25.48
2018-03-17T06:32:11.704Z,25.40
2018-03-17T06:34:39.197Z,25.52
2018-03-17T06:37:06.766Z,25.56
2018-03-17T06:39:34.234Z,25.41
2018-03-17T06:42:01.691Z,25.54
2018-03-17T06:44:29.293Z,25.54
2018-03-17T06:46:56.678Z,25.58
2018-03-17T06:49:24.100Z,25.53
2018-03-17T06:51:51.750Z,25.69
2018-03-17T06:54:19.165Z,25.80
2018-03-17T06:56:46.582Z,25.71
2018-03-17T06:59:14.207Z,26.01
2018-03-17T07:01:41.702Z,26.07
2018-03-17T07:04:09.121Z,26.15
2018-03-17T07:06:36.623Z,26.35
2018-03-17T07:09:04.089Z,26.25
2018-03-17T07:11:31.505Z,26.51
2018-03-17T07:13:59.088Z,26.35
2018-03-17T07:16:26.569Z,26.28
2018-03-17T07:18:54.030Z,27.24
2018-03-17T07:21:21.601Z,27.19
2018-03-17T07:23:49.016Z,27.00
2018-03-17T07:26:16.518Z,26.96
2018-03-17T07:28:44.081Z,27.10
2018-03-17T07:31:11.509Z,25.71
2018-03-17T07:33:38.932Z,26.90
2018-03-17T07:36:06.574Z,27.28
2018-03-17T07:38:34.138Z,27.51
2018-03-17T07:41:01.774Z,27.62
2018-03-17T07:43:29.271Z,27.85
2018-03-17T07:45:56.690Z,27.76
2018-03-17T07:48:24.264Z,27.93
2018-03-17T07:50:51.677Z,28.19
2018-03-17T07:53:19.114Z,28.61
2018-03-17T07:55:46.678Z,27.27
2018-03-17T07:58:14.124Z,28.27
2018-03-17T08:00:41.644Z,28.54
2018-03-17T08:03:09.272Z,27.92
2018-03-17T08:05:36.832Z,28.33
2018-03-17T08:08:04.262Z,28.79
2018-03-17T08:10:31.842Z,26.06
2018-03-17T08:12:59.291Z,25.15
2018-03-17T08:15:26.725Z,23.51
2018-03-17T08:17:54.385Z,25.14
2018-03-17T08:20:21.937Z,24.79
2018-03-17T08:22:49.378Z,26.03
2018-03-17T08:25:16.946Z,26.32
2018-03-17T08:27:44.383Z,26.23
2018-03-17T08:30:11.829Z,26.21
2018-03-17T08:32:39.434Z,26.22
2018-03-17T08:35:06.858Z,26.30
2018-03-17T08:37:34.286Z,26.19
2018-03-17T08:40:01.839Z,26.29
2018-03-17T08:42:29.274Z,26.12
2018-03-17T08:44:56.799Z,26.03
2018-03-17T08:47:24.414Z,26.25
2018-03-17T08:49:51.873Z,24.12
2018-03-17T08:52:19.343Z,25.74
2018-03-17T08:54:46.817Z,25.86
2018-03-17T08:57:14.258Z,25.82
2018-03-17T08:59:41.682Z,26.04
2018-03-17T09:02:09.246Z,25.77
2018-03-17T09:04:36.745Z,25.85
2018-03-17T09:07:04.491Z,26.06
2018-03-17T09:09:31.961Z,25.97
2018-03-17T09:11:59.381Z,26.13
2018-03-17T09:14:26.810Z,26.15
2018-03-17T09:16:54.270Z,26.35
2018-03-17T09:19:21.725Z,26.11
2018-03-17T09:21:49.146Z,26.07
2018-03-17T09:24:16.821Z,26.16
2018-03-17T09:26:44.197Z,26.14
2018-03-17T09:29:11.608Z,25.41
2018-03-17T09:31:39.221Z,25.70
2018-03-17T09:34:06.678Z,25.84
2018-03-17T09:36:34.161Z,25.67
2018-03-17T09:39:01.738Z,25.69
2018-03-17T09:41:29.194Z,25.74
2018-03-17T09:43:56.619Z,25.64
2018-03-17T09:46:24.067Z,25.70
2018-03-17T09:48:51.490Z,25.68
2018-03-17T09:51:18.937Z,25.80
2018-03-17T09:53:46.506Z,25.60
2018-03-17T09:56:13.961Z,25.70
2018-03-17T09:58:41.430Z,25.91
2018-03-17T10:01:08.994Z,26.05
2018-03-17T10:03:36.508Z,25.96
2018-03-17T10:06:03.892Z,25.85
2018-03-17T10:08:31.348Z,25.91
2018-03-17T10:10:58.838Z,25.84
2018-03-17T10:13:26.253Z,25.69
2018-03-17T10:15:53.826Z,25.69
2018-03-17T10:18:21.358Z,25.88
2018-03-17T10:20:48.771Z,25.77
2018-03-17T10:23:16.435Z,25.70
2018-03-17T10:25:43.845Z,25.55
2018-03-17T10:28:11.261Z,25.47
2018-03-17T10:30:38.847Z,25.59
2018-03-17T10:33:06.268Z,25.66
2018-03-17T10:35:33.745Z,25.39
2018-03-17T10:38:01.334Z,25.16
2018-03-17T10:40:28.798Z,25.47
2018-03-17T10:42:56.217Z,25.46
2018-03-17T10:45:23.817Z,25.46
2018-03-17T10:47:51.291Z,25.55
2018-03-17T10:50:18.749Z,25.30
2018-03-17T10:52:46.310Z,25.23
2018-03-17T10:55:13.729Z,25.39
2018-03-17T10:57:41.150Z,25.40
2018-03-17T11:00:08.821Z,25.38
2018-03-17T11:02:41.143Z,25.28
2018-03-17T11:05:08.733Z,25.32
2018-03-17T11:07:36.233Z,25.40
2018-03-17T11:10:03.666Z,25.52
2018-03-17T11:12:31.426Z,25.62
2018-03-17T11:14:58.854Z,25.43
2018-03-17T11:17:26.270Z,25.48
2018-03-17T11:19:53.813Z,25.53
2018-03-17T11:22:21.234Z,25.59
2018-03-17T11:24:48.746Z,25.73
2018-03-17T11:27:16.309Z,25.63
2018-03-17T11:29:43.745Z,25.46
2018-03-17T11:32:11.234Z,25.51
2018-03-17T11:34:38.692Z,25.36
2018-03-17T11:37:06.154Z,25.64
2018-03-17T11:39:33.622Z,25.50
2018-03-17T11:42:01.192Z,25.58
2018-03-17T11:44:28.609Z,25.58
2018-03-17T11:46:56.020Z,25.63
2018-03-17T11:49:23.570Z,25.61
2018-03-17T11:51:50.990Z,25.64
2018-03-17T11:54:18.489Z,25.69
2018-03-17T11:56:46.053Z,25.38
2018-03-17T11:59:13.466Z,25.34
2018-03-17T12:01:40.985Z,25.62
2018-03-17T12:04:08.513Z,25.42
2018-03-17T12:06:35.938Z,25.28
2018-03-17T12:09:03.350Z,25.07
2018-03-17T12:11:30.830Z,25.14
2018-03-17T12:13:58.254Z,25.07
2018-03-17T12:16:25.766Z,25.75
2018-03-17T12:18:53.322Z,25.38
2018-03-17T12:21:20.751Z,25.47
2018-03-17T12:23:48.246Z,25.41
2018-03-17T12:26:15.815Z,25.62
2018-03-17T12:28:43.234Z,26.02
2018-03-17T12:31:10.838Z,25.96
2018-03-17T12:33:38.402Z,26.08
2018-03-17T12:36:05.826Z,26.22
2018-03-17T12:38:33.322Z,26.15
2018-03-17T12:41:00.853Z,25.73
2018-03-17T12:43:28.429Z,26.00
2018-03-17T12:45:55.846Z,26.27
2018-03-17T12:48:23.309Z,23.69
2018-03-17T12:50:50.734Z,22.63
2018-03-17T12:53:18.302Z,21.57
2018-03-17T12:55:45.761Z,21.63
2018-03-17T12:58:13.173Z,21.97
2018-03-17T13:00:40.800Z,22.11
2018-03-17T13:03:08.254Z,21.97
2018-03-17T13:05:35.685Z,21.95
2018-03-17T13:08:03.203Z,22.50
2018-03-17T13:10:30.643Z,22.31
2018-03-17T13:12:58.110Z,21.95
2018-03-17T13:15:25.670Z,21.84
2018-03-17T13:17:53.092Z,22.63
2018-03-17T13:20:20.512Z,23.05
2018-03-17T13:23:00.082Z,23.19
2018-03-17T13:25:27.565Z,23.41
2018-03-17T13:28:07.026Z,23.14
2018-03-17T13:30:34.462Z,23.26
2018-03-17T13:33:01.945Z,20.96
2018-03-17T13:35:41.418Z,21.05
2018-03-17T13:38:08.841Z,23.05
2018-03-17T13:40:43.583Z,22.76
2018-03-17T13:43:11.011Z,24.09
2018-03-17T13:45:38.511Z,24.04
2018-03-17T13:48:05.970Z,22.06
2018-03-17T13:50:33.632Z,21.78
2018-03-17T13:53:01.045Z,23.35
2018-03-17T13:55:28.527Z,23.94
2018-03-17T13:57:56.119Z,23.79
2018-03-17T14:00:23.578Z,23.72
2018-03-17T14:02:50.998Z,23.92
2018-03-17T14:05:18.598Z,23.85
2018-03-17T14:07:46.070Z,23.94
2018-03-17T14:10:13.585Z,24.08
2018-03-17T14:12:41.502Z,24.12
2018-03-17T14:15:08.922Z,24.07
2018-03-17T14:17:36.413Z,24.16
2018-03-17T14:20:03.886Z,24.14
2018-03-17T14:22:31.338Z,24.29
2018-03-17T14:24:58.758Z,21.68
2018-03-17T14:27:26.210Z,22.62
2018-03-17T14:29:54.038Z,22.97
2018-03-17T14:32:21.516Z,21.99
2018-03-17T14:34:49.069Z,22.24
2018-03-17T14:37:16.514Z,22.72
2018-03-17T14:39:43.933Z,23.03
2018-03-17T14:42:11.622Z,22.99
2018-03-17T14:44:39.050Z,23.07
2018-03-17T14:47:06.470Z,23.13
2018-03-17T14:49:34.126Z,23.06
2018-03-17T14:52:01.542Z,23.25
2018-03-17T14:54:28.983Z,22.97
2018-03-17T14:56:56.538Z,23.14
2018-03-17T14:59:23.953Z,23.09
2018-03-17T15:01:51.474Z,22.50
2018-03-17T15:04:19.030Z,22.93
2018-03-17T15:06:46.441Z,23.00
2018-03-17T15:09:13.897Z,23.13
2018-03-17T15:11:41.474Z,24.11
2018-03-17T15:14:08.900Z,24.01
2018-03-17T15:16:36.446Z,22.90
2018-03-17T15:19:04.006Z,24.54
2018-03-17T15:21:31.426Z,24.78
2018-03-17T15:23:58.914Z,24.79
2018-03-17T15:26:26.367Z,20.90
2018-03-17T15:28:53.857Z,22.17
2018-03-17T15:31:21.318Z,23.30
2018-03-17T15:33:48.795Z,23.68
2018-03-17T15:36:16.242Z,23.51
2018-03-17T15:38:43.661Z,23.48
2018-03-17T15:41:11.124Z,23.75
2018-03-17T15:43:38.622Z,23.39
2018-03-17T15:46:06.046Z,23.53
2018-03-17T15:48:33.558Z,23.67
2018-03-17T15:51:00.970Z,23.96
2018-03-17T15:53:28.386Z,22.17
2018-03-17T15:55:55.842Z,23.37
2018-03-17T15:58:23.258Z,23.81
2018-03-17T16:00:50.679Z,24.10
2018-03-17T16:03:18.325Z,24.71
2018-03-17T16:05:45.746Z,24.42
2018-03-17T16:08:13.167Z,24.52
2018-03-17T16:10:40.825Z,24.67
2018-03-17T16:13:08.238Z,25.05
2018-03-17T16:15:35.668Z,24.93
2018-03-17T16:18:03.913Z,23.88
2018-03-17T16:20:31.382Z,25.90
2018-03-17T16:22:58.807Z,25.91
2018-03-17T16:25:26.354Z,24.07
2018-03-17T16:27:53.859Z,25.38
2018-03-17T16:30:21.297Z,24.79
2018-03-17T16:32:48.870Z,25.95
2018-03-17T16:35:16.286Z,26.08
2018-03-17T16:37:43.707Z,27.05
2018-03-17T16:40:11.166Z,26.13
2018-03-17T16:42:38.637Z,27.71
2018-03-17T16:45:06.063Z,26.50
2018-03-17T16:47:34.518Z,28.98
2018-03-17T16:50:01.934Z,27.73
2018-03-17T16:52:29.414Z,28.47
2018-03-17T16:54:57.053Z,28.62
2018-03-17T16:57:24.475Z,28.68
2018-03-17T16:59:51.898Z,28.98
2018-03-17T17:02:19.551Z,29.02
2018-03-17T17:04:46.976Z,25.65
2018-03-17T17:07:14.389Z,28.63
2018-03-17T17:09:41.956Z,29.12
2018-03-17T17:12:09.369Z,26.58
2018-03-17T17:14:36.790Z,23.46
2018-03-17T17:17:04.447Z,24.96
2018-03-17T17:19:31.861Z,25.44
2018-03-17T17:21:59.284Z,25.32
2018-03-17T17:24:26.841Z,26.32
2018-03-17T17:26:54.249Z,29.18
2018-03-17T17:29:21.680Z,28.32
2018-03-17T17:31:49.313Z,27.42
2018-03-17T17:34:16.737Z,28.17
2018-03-17T17:36:44.241Z,27.49
2018-03-17T17:39:11.801Z,28.21
2018-03-17T17:41:39.216Z,28.33
2018-03-17T17:44:07.786Z,28.53
2018-03-17T17:46:35.335Z,29.80
2018-03-17T17:49:02.770Z,29.65
2018-03-17T17:51:30.346Z,29.52
2018-03-17T17:53:57.782Z,29.96
2018-03-17T17:56:25.216Z,29.61
2018-03-17T17:58:52.833Z,29.73
2018-03-17T18:01:20.303Z,29.66
2018-03-17T18:03:47.751Z,29.73
2018-03-17T18:06:15.604Z,29.80
2018-03-17T18:08:43.034Z,29.44
2018-03-17T18:11:10.553Z,24.43
2018-03-17T18:13:38.194Z,23.96
2018-03-17T18:16:05.642Z,27.71
2018-03-17T18:18:33.145Z,27.93
2018-03-17T18:21:00.714Z,27.96
2018-03-17T18:23:28.139Z,28.37
2018-03-17T18:25:55.737Z,27.76
2018-03-17T18:28:23.158Z,28.29
2018-03-17T18:30:50.685Z,24.08
2018-03-17T18:33:18.150Z,27.30
2018-03-17T18:35:45.587Z,27.78
2018-03-17T18:38:13.010Z,27.83
2018-03-17T18:40:40.613Z,28.11
2018-03-17T18:43:08.034Z,28.58
2018-03-17T18:45:35.446Z,27.98
2018-03-17T18:48:03.013Z,27.73
2018-03-17T18:50:30.446Z,28.30
2018-03-17T18:52:57.861Z,28.28
2018-03-17T18:55:25.587Z,28.59
2018-03-17T18:57:53.059Z,28.65
2018-03-17T19:00:20.518Z,29.39
2018-03-17T19:02:48.108Z,29.41
2018-03-17T19:05:15.510Z,29.18
2018-03-17T19:07:43.006Z,28.91
2018-03-17T19:10:10.611Z,28.80
2018-03-17T19:12:38.014Z,29.11
2018-03-17T19:15:05.554Z,29.51
2018-03-17T19:17:32.977Z,29.78
2018-03-17T19:20:00.397Z,29.89
2018-03-17T19:22:27.890Z,29.37
2018-03-17T19:24:55.333Z,29.20
2018-03-17T19:27:22.754Z,29.06
2018-03-17T19:29:50.371Z,28.87
2018-03-17T19:32:17.856Z,29.12
2018-03-17T19:34:45.239Z,29.05
2018-03-17T19:37:12.854Z,29.35
2018-03-17T19:39:40.311Z,28.61
2018-03-17T19:42:07.766Z,28.63
2018-03-17T19:44:35.488Z,28.60
2018-03-17T19:47:02.892Z,28.36
2018-03-17T19:49:30.330Z,28.23
2018-03-17T19:51:58.141Z,28.06
2018-03-17T19:54:25.576Z,28.04
2018-03-17T19:56:53.006Z,28.07
2018-03-17T19:59:20.587Z,27.78
2018-03-17T20:01:48.010Z,27.90
2018-03-17T20:04:15.434Z,27.97
2018-03-17T20:06:43.059Z,27.77
2018-03-17T20:09:10.484Z,27.60
2018-03-17T20:11:37.916Z,27.62
2018-03-17T20:14:05.459Z,27.49
2018-03-17T20:19:06.773Z,27.37
2018-03-17T20:21:34.195Z,27.36
2018-03-17T20:24:01.622Z,27.29
2018-03-17T20:26:29.082Z,27.31
2018-03-17T20:28:56.535Z,27.07
2018-03-17T20:31:23.963Z,27.13
2018-03-17T20:33:51.390Z,27.03
2018-03-17T20:36:19.006Z,27.08
2018-03-17T20:38:46.429Z,26.98
2018-03-17T20:41:13.854Z,26.92
2018-03-17T20:43:41.471Z,26.88
2018-03-17T20:46:08.892Z,26.87
2018-03-17T20:48:36.318Z,26.82
2018-03-17T20:51:03.770Z,26.75
2018-03-17T20:53:31.193Z,26.82
2018-03-17T20:55:58.623Z,26.79
2018-03-17T20:58:26.180Z,26.68
2018-03-17T21:00:53.593Z,26.68
2018-03-17T21:03:21.015Z,26.58
2018-03-17T21:05:48.654Z,26.62
2018-03-17T21:08:16.093Z,26.65
2018-03-17T21:10:43.531Z,26.62
2018-03-17T21:13:11.165Z,26.48
2018-03-17T21:15:39.487Z,26.47
2018-03-17T21:18:06.915Z,26.33
2018-03-17T21:20:34.569Z,23.40
2018-03-17T21:23:02.026Z,25.01
2018-03-17T21:25:29.453Z,25.62
2018-03-17T21:27:56.874Z,25.74
2018-03-17T21:30:24.462Z,25.83
2018-03-17T21:32:51.894Z,25.87
2018-03-17T21:35:19.326Z,25.85
2018-03-17T21:37:46.858Z,25.85
2018-03-17T21:40:14.383Z,25.82
2018-03-17T21:42:41.994Z,25.82
2018-03-17T21:45:09.665Z,25.77
2018-03-17T21:47:37.168Z,25.78
2018-03-17T21:50:04.762Z,25.74
2018-03-17T21:52:32.453Z,25.66
2018-03-17T21:54:59.922Z,25.56
2018-03-17T21:57:27.394Z,25.42
2018-03-17T21:59:55.102Z,25.50
2018-03-17T22:02:22.609Z,25.48
2018-03-17T22:04:50.474Z,25.27
2018-03-17T22:07:17.944Z,25.40
2018-03-17T22:09:45.359Z,25.26
2018-03-17T22:12:14.057Z,25.28
2018-03-17T22:14:41.541Z,25.26
2018-03-17T22:17:09.063Z,25.24
2018-03-17T22:19:36.780Z,25.08
2018-03-17T22:22:04.230Z,25.03
2018-03-17T22:24:31.688Z,25.07
2018-03-17T22:26:59.346Z,24.95
2018-03-17T22:29:26.848Z,24.97
2018-03-17T22:31:54.337Z,24.94
2018-03-17T22:34:21.857Z,24.84
2018-03-17T22:36:49.290Z,24.84
2018-03-17T22:39:16.719Z,24.78
2018-03-17T22:41:44.286Z,24.71
2018-03-17T22:44:11.704Z,24.76
2018-03-17T22:46:39.127Z,24.74
2018-03-17T22:49:06.679Z,24.11
2018-03-17T22:51:34.498Z,24.51
2018-03-17T22:54:02.116Z,24.46
2018-03-17T22:56:29.530Z,24.50
2018-03-17T22:58:56.955Z,24.33
2018-03-17T23:01:24.494Z,24.41
2018-03-17T23:03:51.914Z,24.35
2018-03-17T23:06:19.336Z,24.43
2018-03-17T23:08:46.793Z,24.27
2018-03-17T23:11:14.219Z,24.20
2018-03-17T23:13:41.922Z,24.18
2018-03-17T23:16:09.360Z,24.01
2018-03-17T23:18:36.782Z,24.21
2018-03-17T23:21:04.322Z,24.21
2018-03-17T23:23:31.745Z,24.18
2018-03-17T23:25:59.169Z,24.05
2018-03-17T23:28:26.706Z,24.11
2018-03-17T23:30:54.130Z,23.97
2018-03-17T23:33:21.553Z,24.08
2018-03-17T23:35:49.096Z,23.93
2018-03-17T23:38:16.507Z,23.85
2018-03-17T23:40:43.930Z,23.74
2018-03-17T23:43:11.383Z,23.74
2018-03-17T23:45:38.802Z,23.79
2018-03-17T23:48:06.230Z,23.72
2018-03-17T23:50:33.682Z,23.64
2018-03-17T23:53:01.110Z,23.71
2018-03-17T23:55:28.553Z,23.51
2018-03-17T23:57:56.087Z,23.67
